Tributaries of Morava river

Břeclav-Ladná (Thaya)

Date and time (UTC) H (cm) Q (m³/s)
1. 3. 2021 01:00 127 80.3
1. 3. 2021 00:00 127 80
28. 2. 2021 23:00 127 80
28. 2. 2021 22:00 127 80
28. 2. 2021 21:00 127 80
28. 2. 2021 20:00 127 80
28. 2. 2021 19:00 127 80
28. 2. 2021 18:00 127 80
28. 2. 2021 17:00 127 80
28. 2. 2021 16:00 127 80
28. 2. 2021 15:00 127 80
28. 2. 2021 14:00 127 80
28. 2. 2021 13:00 127 80

H - water level, Q - discharge

Dluhonice (Bečva)

Date and time (UTC) H (cm) Q (m³/s)
1. 3. 2021 01:10 177 43.5
1. 3. 2021 01:00 177 44
1. 3. 2021 00:00 177 44
28. 2. 2021 23:00 178 45
28. 2. 2021 22:00 178 45
28. 2. 2021 21:00 180 47
28. 2. 2021 20:00 179 46
28. 2. 2021 19:00 180 47
28. 2. 2021 18:00 181 48
28. 2. 2021 17:00 181 48
28. 2. 2021 16:00 181 48
28. 2. 2021 15:00 183 50
28. 2. 2021 14:00 183 50
28. 2. 2021 13:00 178 45

H - water level, Q - discharge
Source data
Labe Basin Vltava Basin Povodí Moravy ČHMÚ